Time;durP1;ratioP1;P1;durP2;ratioP2;P2;SDS_P1;SDS_P2;PMS_P1;PMS_P2;Temp;Humidity;BMP_temperature;BMP_pressure;BME280_temperature;BME280_humidity;BME280_pressure;Samples;Min_cycle;Max_cycle;Signal;HPM_P1;HPM_P2
2022/11/24 00:03:25;;;;;;;1.55;1.10;;;;;;;-6.16;94.83;101423.50;10562553;28;20053;-76
2022/11/24 00:08:28;;;;;;;0.70;0.70;;;;;;;-6.21;95.26;101415.09;10567078;28;20044;-76
2022/11/24 00:13:31;;;;;;;1.52;1.20;;;;;;;-6.20;95.02;101414.13;10553182;28;20060;-76
2022/11/24 00:18:33;;;;;;;1.13;1.02;;;;;;;-6.18;94.34;101425.47;10568892;28;20502;-76
2022/11/24 00:23:36;;;;;;;1.13;0.95;;;;;;;-6.21;94.59;101423.97;10568937;28;20035;-76
2022/11/24 00:28:38;;;;;;;1.20;1.05;;;;;;;-6.22;94.39;101421.44;10568264;28;20289;-76
2022/11/24 00:33:41;;;;;;;0.47;0.47;;;;;;;-6.18;93.71;101436.16;10570765;28;20035;-75
2022/11/24 00:38:44;;;;;;;2.83;1.42;;;;;;;-6.17;94.14;101427.16;10569590;28;20062;-75
2022/11/24 00:43:46;;;;;;;1.02;0.90;;;;;;;-6.15;93.57;101417.16;10564045;28;20036;-75
2022/11/24 00:48:48;;;;;;;2.35;1.30;;;;;;;-6.15;94.00;101423.34;10568016;28;20044;-75
2022/11/24 00:53:50;;;;;;;1.65;0.90;;;;;;;-6.14;93.43;101422.34;10566734;28;20039;-76
2022/11/24 00:58:52;;;;;;;1.40;1.30;;;;;;;-6.11;93.82;101431.88;10562431;28;20031;-76
2022/11/24 01:03:55;;;;;;;1.63;0.93;;;;;;;-6.12;93.36;101431.03;10568707;28;20043;-74
2022/11/24 01:08:57;;;;;;;1.90;1.08;;;;;;;-6.12;93.55;101430.19;10568640;28;20043;-75
2022/11/24 01:13:59;;;;;;;2.30;1.30;;;;;;;-6.16;92.65;101445.69;10562956;28;20047;-75
2022/11/24 01:19:02;;;;;;;3.53;1.63;;;;;;;-6.18;92.76;101441.50;10564155;28;20032;-74
2022/11/24 01:24:05;;;;;;;0.70;0.70;;;;;;;-6.19;92.54;101432.66;10563550;28;20036;-75
2022/11/24 01:29:09;;;;;;;0.70;0.70;;;;;;;-6.20;93.18;101422.97;10565899;28;20044;-75
2022/11/24 01:34:12;;;;;;;2.00;1.40;;;;;;;-6.15;92.71;101430.50;10565115;28;20379;-76
2022/11/24 01:39:14;;;;;;;1.15;0.98;;;;;;;-6.19;92.89;101423.81;10568136;28;20044;-76
2022/11/24 01:44:25;;;;;;;1.67;1.35;;;;;;;-6.22;92.74;101418.78;10565129;28;20036;-76
2022/11/24 01:49:50;;;;;;;3.60;2.17;;;;;;;-6.18;93.01;101426.31;10558131;28;20044;-75
2022/11/24 01:54:59;;;;;;;2.25;1.35;;;;;;;-6.16;92.83;101415.47;10560236;28;20628;-76
2022/11/24 02:00:07;;;;;;;2.47;1.27;;;;;;;-6.13;93.15;101409.81;10531081;28;20036;-76
2022/11/24 02:05:19;;;;;;;1.80;1.40;;;;;;;-6.12;92.91;101415.00;10563995;28;20027;-76
2022/11/24 02:10:22;;;;;;;2.00;1.10;;;;;;;-6.10;93.03;101412.19;10566571;28;20047;-76
2022/11/24 02:15:24;;;;;;;1.63;1.30;;;;;;;-6.06;92.88;101412.75;10566686;28;20067;-76
2022/11/24 02:20:27;;;;;;;2.75;1.88;;;;;;;-6.01;92.77;101434.47;10565288;28;20040;-76
2022/11/24 02:25:58;;;;;;;1.88;1.45;;;;;;;-6.00;92.63;101426.31;10563777;28;20142;-76
2022/11/24 02:31:00;;;;;;;1.20;0.80;;;;;;;-6.00;92.73;101422.81;10560149;28;20051;-76
2022/11/24 02:36:03;;;;;;;0.55;0.32;;;;;;;-5.91;92.85;101428.03;10563593;28;20055;-76
2022/11/24 02:41:07;;;;;;;2.55;1.13;;;;;;;-5.92;92.87;101433.53;10557610;28;20040;-76
2022/11/24 02:46:10;;;;;;;1.67;1.17;;;;;;;-5.94;92.53;101433.69;10553358;28;20037;-76
2022/11/24 02:51:12;;;;;;;3.35;1.67;;;;;;;-5.93;92.55;101443.38;10564915;28;20071;-76
2022/11/24 02:56:14;;;;;;;1.70;1.40;;;;;;;-5.99;92.27;101451.19;10555529;28;20516;-75
2022/11/24 03:01:16;;;;;;;3.05;1.30;;;;;;;-6.04;92.42;101449.00;10556725;28;20036;-77
2022/11/24 03:06:18;;;;;;;1.73;1.13;;;;;;;-6.09;92.62;101456.59;10555985;28;20043;-75
2022/11/24 03:11:21;;;;;;;4.43;1.95;;;;;;;-6.16;92.76;101460.91;10544733;28;20040;-74
2022/11/24 03:16:23;;;;;;;3.97;1.70;;;;;;;-6.20;92.32;101467.53;10545226;28;20406;-75
2022/11/24 03:21:30;;;;;;;3.50;1.92;;;;;;;-6.17;92.43;101459.22;10564502;28;20055;-76
2022/11/24 03:26:40;;;;;;;3.15;1.77;;;;;;;-6.21;92.62;101485.41;10565763;28;20423;-76
2022/11/24 03:31:43;;;;;;;2.80;1.42;;;;;;;-6.27;92.51;101475.28;10563270;28;20418;-76
2022/11/24 03:36:45;;;;;;;0.73;0.73;;;;;;;-6.33;92.53;101475.06;10566405;28;20050;-76
2022/11/24 03:41:51;;;;;;;3.28;1.77;;;;;;;-6.38;91.97;101475.53;10567701;28;20036;-76
2022/11/24 03:46:53;;;;;;;1.08;1.08;;;;;;;-6.43;92.16;101469.78;10569974;28;20052;-77
2022/11/24 03:52:21;;;;;;;0.90;0.50;;;;;;;-6.49;91.12;101475.72;10555048;28;20031;-77
2022/11/24 03:57:27;;;;;;;0.98;0.82;;;;;;;-6.54;91.17;101489.53;10559516;28;20039;-76
2022/11/24 04:02:30;;;;;;;0.95;0.88;;;;;;;-6.54;90.61;101478.84;10562682;28;20047;-77
2022/11/24 04:07:32;;;;;;;2.75;0.98;;;;;;;-6.56;90.98;101491.53;10556251;28;20106;-77
2022/11/24 04:12:43;;;;;;;0.52;0.52;;;;;;;-6.58;90.64;101487.31;10556604;28;20035;-77
2022/11/24 04:17:48;;;;;;;0.38;0.38;;;;;;;-6.63;90.26;101497.59;10556739;28;20051;-77
2022/11/24 04:22:50;;;;;;;0.45;0.35;;;;;;;-6.72;90.60;101486.81;10574842;28;20056;-77
2022/11/24 04:27:54;;;;;;;0.90;0.88;;;;;;;-6.75;90.53;101496.97;10560552;28;20039;-78
2022/11/24 04:32:56;;;;;;;1.23;0.75;;;;;;;-6.76;90.49;101497.94;10543503;28;20097;-77
2022/11/24 04:38:01;;;;;;;0.88;0.63;;;;;;;-6.77;90.60;101488.22;10549629;28;20028;-76
2022/11/24 04:43:03;;;;;;;1.73;0.88;;;;;;;-6.77;91.25;101510.44;10542054;28;20044;-76
2022/11/24 04:48:06;;;;;;;2.80;1.58;;;;;;;-6.82;90.32;101506.53;10544292;28;20051;-76
2022/11/24 04:53:09;;;;;;;0.73;0.52;;;;;;;-6.89;90.03;101518.78;10538019;28;20040;-77
2022/11/24 04:58:12;;;;;;;1.65;0.98;;;;;;;-6.85;89.76;101499.66;10527979;28;20044;-77
2022/11/24 05:03:14;;;;;;;1.25;0.75;;;;;;;-6.92;90.04;101506.56;10544267;28;20043;-75
2022/11/24 05:08:16;;;;;;;0.60;0.60;;;;;;;-6.97;89.20;101527.50;10563733;28;20040;-78
2022/11/24 05:13:19;;;;;;;3.13;0.93;;;;;;;-7.01;89.76;101518.94;10531762;28;20060;-78
2022/11/24 05:18:22;;;;;;;0.73;0.45;;;;;;;-6.98;89.38;101520.47;10542565;28;20418;-76
2022/11/24 05:23:24;;;;;;;0.90;0.88;;;;;;;-7.02;88.88;101535.09;10572555;28;20048;-75
2022/11/24 05:28:27;;;;;;;1.02;0.68;;;;;;;-7.07;89.53;101532.88;10542423;28;20052;-76
2022/11/24 05:33:32;;;;;;;2.25;1.27;;;;;;;-7.08;89.56;101533.03;10523656;28;20036;-76
2022/11/24 05:38:34;;;;;;;1.42;1.30;;;;;;;-7.08;89.80;101535.69;10564455;28;20317;-77
2022/11/24 05:43:36;;;;;;;1.15;0.98;;;;;;;-7.09;89.67;101548.19;10564153;28;20031;-77
2022/11/24 05:48:38;;;;;;;1.25;1.05;;;;;;;-7.12;90.11;101558.28;10564184;28;20047;-76
2022/11/24 05:53:41;;;;;;;2.15;1.23;;;;;;;-7.14;90.43;101554.91;10568737;28;20047;-77
2022/11/24 05:58:43;;;;;;;1.65;1.50;;;;;;;-7.18;90.60;101562.38;10575060;28;20050;-89
2022/11/24 06:03:45;;;;;;;0.93;0.90;;;;;;;-7.17;90.88;101569.38;10546520;28;20561;-76
2022/11/24 06:08:47;;;;;;;0.63;0.63;;;;;;;-7.14;90.90;101565.59;10570707;28;20062;-76
2022/11/24 06:13:50;;;;;;;0.57;0.57;;;;;;;-7.13;91.68;101578.78;10574679;28;20620;-77
2022/11/24 06:18:52;;;;;;;1.67;1.10;;;;;;;-7.12;91.45;101574.28;10572908;28;20063;-78
2022/11/24 06:23:54;;;;;;;2.70;1.30;;;;;;;-7.13;91.65;101577.94;10574584;28;20387;-77
2022/11/24 06:28:57;;;;;;;3.90;2.15;;;;;;;-7.14;91.29;101582.44;10574168;28;20453;-76
2022/11/24 06:33:59;;;;;;;2.65;1.65;;;;;;;-7.21;91.60;101585.81;10574655;28;20038;-77
2022/11/24 06:39:03;;;;;;;1.40;1.30;;;;;;;-7.22;91.40;101606.31;10574336;28;20042;-77
2022/11/24 06:44:07;;;;;;;3.72;2.00;;;;;;;-7.20;91.75;101604.34;10557376;28;20437;-77
2022/11/24 06:49:09;;;;;;;2.75;2.17;;;;;;;-7.18;91.94;101618.38;10528716;28;20044;-77
2022/11/24 06:54:16;;;;;;;2.30;0.77;;;;;;;-7.11;91.77;101616.00;10536994;28;20414;-77
2022/11/24 06:59:19;;;;;;;1.77;1.10;;;;;;;-7.11;92.09;101619.50;10568407;28;20044;-77
2022/11/24 07:04:21;;;;;;;2.33;1.27;;;;;;;-7.06;91.59;101619.06;10569435;28;20039;-77
2022/11/24 07:09:24;;;;;;;2.35;1.20;;;;;;;-7.07;91.51;101631.56;10568496;28;20047;-77
2022/11/24 07:14:26;;;;;;;4.60;3.15;;;;;;;-7.07;91.82;101622.72;10568418;28;20040;-77
2022/11/24 07:19:28;;;;;;;5.28;2.05;;;;;;;-7.08;90.80;101637.03;10577144;28;20040;-77
2022/11/24 07:24:30;;;;;;;1.00;0.93;;;;;;;-7.13;91.07;101631.28;10576205;28;20039;-77
2022/11/24 07:29:32;;;;;;;0.88;0.60;;;;;;;-7.13;91.24;101650.78;10577029;28;20052;-77
2022/11/24 07:34:35;;;;;;;1.52;0.95;;;;;;;-7.08;91.06;101645.03;10577090;28;20410;-76
2022/11/24 07:39:37;;;;;;;1.80;1.48;;;;;;;-7.11;90.52;101654.19;10575197;28;20048;-77
2022/11/24 07:44:39;;;;;;;1.88;1.48;;;;;;;-7.12;91.13;101639.13;10575611;28;20052;-77
2022/11/24 07:49:41;;;;;;;4.68;1.67;;;;;;;-7.05;91.07;101639.44;10576362;28;20044;-78
2022/11/24 07:54:43;;;;;;;4.43;2.63;;;;;;;-6.97;91.13;101639.53;10576220;28;20047;-76
2022/11/24 07:59:45;;;;;;;2.95;1.70;;;;;;;-6.94;90.62;101660.63;10574725;28;20036;-77
2022/11/24 08:04:48;;;;;;;1.95;1.38;;;;;;;-6.91;90.01;101651.47;10575429;28;20056;-78
2022/11/24 08:09:51;;;;;;;2.30;0.70;;;;;;;-6.88;90.25;101651.19;10575143;28;20043;-77
2022/11/24 08:14:53;;;;;;;4.50;2.17;;;;;;;-6.88;90.34;101664.53;10575010;28;20040;-76
2022/11/24 08:19:56;;;;;;;4.22;2.15;;;;;;;-6.86;89.88;101657.22;10575703;28;20047;-78
2022/11/24 08:24:58;;;;;;;2.17;1.35;;;;;;;-6.84;89.74;101663.25;10575158;28;20040;-76
2022/11/24 08:30:00;;;;;;;1.17;1.08;;;;;;;-6.82;89.83;101650.63;10572649;28;20060;-77
2022/11/24 08:35:02;;;;;;;2.85;1.25;;;;;;;-6.76;89.30;101658.91;10574661;28;20051;-76
2022/11/24 08:40:05;;;;;;;4.38;1.83;;;;;;;-6.75;89.68;101662.41;10574778;28;20414;-76
2022/11/24 08:45:08;;;;;;;3.13;1.35;;;;;;;-6.71;89.00;101664.66;10569526;28;20043;-77
2022/11/24 08:50:10;;;;;;;6.88;2.03;;;;;;;-6.64;89.30;101664.91;10532158;28;20046;-77
2022/11/24 08:55:12;;;;;;;2.55;1.85;;;;;;;-6.55;89.47;101668.53;10542509;28;20036;-77
2022/11/24 09:00:21;;;;;;;2.22;1.45;;;;;;;-6.55;88.81;101672.06;10573680;28;20064;-76
2022/11/24 09:05:24;;;;;;;0.70;0.65;;;;;;;-6.52;89.05;101679.78;10572255;28;20060;-77
2022/11/24 09:10:26;;;;;;;2.67;1.70;;;;;;;-6.53;88.94;101680.75;10573098;28;20047;-77
2022/11/24 09:15:28;;;;;;;1.67;1.17;;;;;;;-6.54;89.16;101689.75;10572286;28;20040;-76
2022/11/24 09:20:30;;;;;;;3.10;1.98;;;;;;;-6.57;89.04;101689.22;10571253;28;20040;-76
2022/11/24 09:25:32;;;;;;;9.38;2.50;;;;;;;-6.53;89.63;101691.44;10572982;28;20051;-76
2022/11/24 09:30:34;;;;;;;4.95;2.47;;;;;;;-6.46;89.53;101692.53;10572178;28;20056;-78
2022/11/24 09:35:37;;;;;;;1.83;1.58;;;;;;;-6.43;89.29;101696.72;10571301;28;20040;-78
2022/11/24 09:40:39;;;;;;;0.40;0.40;;;;;;;-6.49;89.22;101694.66;10554179;28;20521;-77
2022/11/24 09:46:05;;;;;;;7.10;2.33;;;;;;;-6.46;89.46;101700.53;10553541;28;20040;-77
2022/11/24 09:51:12;;;;;;;2.83;1.25;;;;;;;-6.45;89.26;101690.69;10569696;28;20498;-78
2022/11/24 09:56:22;;;;;;;5.85;2.08;;;;;;;-6.44;89.31;101705.72;10546834;28;20044;-78
2022/11/24 10:01:38;;;;;;;3.72;1.70;;;;;;;-6.42;89.42;101701.97;10529283;28;20044;-76
2022/11/24 10:06:47;;;;;;;2.00;1.70;;;;;;;-6.44;88.81;101697.72;10532415;28;20534;-77
2022/11/24 10:12:09;;;;;;;3.50;2.22;;;;;;;-6.42;89.31;101699.28;10569207;28;20044;-77
2022/11/24 10:17:28;;;;;;;2.90;2.30;;;;;;;-6.40;89.37;101686.63;10549294;28;20080;-78
2022/11/24 10:22:48;;;;;;;5.50;2.58;;;;;;;-6.34;89.27;101693.22;10569477;28;20086;-78
2022/11/24 10:28:00;;;;;;;4.43;2.08;;;;;;;-6.38;89.52;101694.50;10566901;28;20418;-77
2022/11/24 10:33:12;;;;;;;5.78;2.22;;;;;;;-6.41;89.24;101692.13;10569393;28;20052;-76
2022/11/24 10:38:20;;;;;;;5.65;3.03;;;;;;;-6.40;89.00;101691.13;10569903;28;20054;-78
2022/11/24 10:43:25;;;;;;;8.83;3.30;;;;;;;-6.44;88.95;101698.56;10569976;28;20052;-78
2022/11/24 10:48:30;;;;;;;4.07;2.33;;;;;;;-6.42;89.30;101688.59;10565194;28;20482;-77
2022/11/24 10:53:33;;;;;;;4.57;2.80;;;;;;;-6.43;89.17;101692.25;10568648;28;20044;-77
2022/11/24 10:58:37;;;;;;;4.53;2.80;;;;;;;-6.50;88.89;101699.16;10551354;28;20422;-75
2022/11/24 11:03:50;;;;;;;2.28;1.58;;;;;;;-6.59;88.70;101699.19;10568255;28;20044;-77
2022/11/24 11:09:16;;;;;;;6.78;3.20;;;;;;;-6.64;89.11;101688.91;10549280;28;20327;-77
2022/11/24 11:14:30;;;;;;;7.45;2.78;;;;;;;-6.59;88.88;101691.19;10527269;28;20047;-76
2022/11/24 11:19:35;;;;;;;0.73;0.68;;;;;;;-6.57;88.94;101695.38;10527098;28;20415;-77
2022/11/24 11:24:38;;;;;;;3.95;1.98;;;;;;;-6.61;89.42;101701.97;10527382;28;20033;-77
2022/11/24 11:29:41;;;;;;;2.25;1.70;;;;;;;-6.65;89.30;101695.25;10527911;28;20079;-77
2022/11/24 11:34:43;;;;;;;3.67;2.00;;;;;;;-6.70;89.46;101702.84;10526204;28;20050;-76
2022/11/24 11:39:47;;;;;;;10.07;3.13;;;;;;;-6.73;89.75;101706.66;10525087;28;20036;-77
2022/11/24 11:45:14;;;;;;;2.35;1.75;;;;;;;-6.73;89.58;101720.00;10558907;28;20052;-76
2022/11/24 11:50:21;;;;;;;6.13;2.58;;;;;;;-6.76;89.79;101704.28;10555129;28;20040;-75
2022/11/24 11:55:33;;;;;;;3.43;1.43;;;;;;;-6.74;90.04;101710.31;10577675;28;20051;-76
2022/11/24 12:00:38;;;;;;;4.90;2.67;;;;;;;-6.72;90.05;101721.69;10579029;28;20032;-77
2022/11/24 12:05:40;;;;;;;0.88;0.80;;;;;;;-6.74;89.66;101723.66;10582871;28;20044;-77
2022/11/24 12:11:11;;;;;;;2.03;1.20;;;;;;;-6.72;90.24;101721.69;10573947;28;20040;-77
2022/11/24 12:16:29;;;;;;;4.47;2.40;;;;;;;-6.70;89.75;101722.38;10578995;28;20040;-76
2022/11/24 12:21:40;;;;;;;3.28;2.22;;;;;;;-6.71;89.83;101722.53;10573356;28;20040;-78
2022/11/24 12:26:50;;;;;;;3.90;2.72;;;;;;;-6.74;90.42;101723.66;10573379;28;20854;-77
2022/11/24 12:32:14;;;;;;;5.68;2.45;;;;;;;-6.74;90.59;101720.13;10567226;28;20047;-77
2022/11/24 12:37:39;;;;;;;7.85;4.32;;;;;;;-6.76;90.28;101719.44;10543277;28;20521;-75
2022/11/24 12:43:13;;;;;;;4.10;2.30;;;;;;;-6.75;90.91;101715.78;10566086;28;20056;-76
2022/11/24 12:48:31;;;;;;;5.97;2.50;;;;;;;-6.69;90.55;101712.53;10558977;28;20126;-75
2022/11/24 12:53:33;;;;;;;4.85;2.10;;;;;;;-6.68;90.45;101715.06;10564249;28;20051;-76
2022/11/24 12:58:54;;;;;;;3.65;1.25;;;;;;;-6.69;90.77;101725.88;10571474;28;20044;-76
2022/11/24 13:04:17;;;;;;;1.83;1.17;;;;;;;-6.74;90.60;101723.66;10550073;28;20061;-75
2022/11/24 13:09:19;;;;;;;0.88;0.73;;;;;;;-6.80;90.84;101712.69;10551549;28;20036;-77
2022/11/24 13:14:31;;;;;;;5.03;2.50;;;;;;;-6.84;91.12;101729.97;10567041;28;20054;-76
2022/11/24 13:19:35;;;;;;;3.97;2.30;;;;;;;-6.87;90.70;101732.91;10553656;28;20090;-76
2022/11/24 13:24:38;;;;;;;3.50;2.15;;;;;;;-6.90;91.12;101743.88;10564870;28;20517;-77
2022/11/24 13:29:43;;;;;;;0.63;0.57;;;;;;;-7.02;91.20;101749.34;10553297;28;20530;-76
2022/11/24 13:34:54;;;;;;;2.53;1.30;;;;;;;-7.17;91.29;101757.88;10569810;28;20048;-76
2022/11/24 13:40:22;;;;;;;0.90;0.90;;;;;;;-7.32;91.55;101754.78;10563791;28;20038;-77
2022/11/24 13:45:49;;;;;;;2.78;2.28;;;;;;;-7.38;91.25;101758.84;10562270;28;20048;-77
2022/11/24 13:50:54;;;;;;;4.53;2.45;;;;;;;-7.38;91.49;101772.19;10562331;28;20036;-77
2022/11/24 13:56:12;;;;;;;4.10;2.28;;;;;;;-7.41;91.91;101772.47;10563653;28;20494;-77
2022/11/24 14:01:31;;;;;;;2.50;2.00;;;;;;;-7.45;92.47;101780.88;10567975;28;20046;-76
2022/11/24 14:06:47;;;;;;;1.05;0.93;;;;;;;-7.45;92.79;101784.38;10567326;28;20046;-77
2022/11/24 14:11:57;;;;;;;2.33;1.48;;;;;;;-7.45;93.08;101791.53;10561980;28;20498;-76
2022/11/24 14:17:11;;;;;;;7.55;2.00;;;;;;;-7.49;93.11;101801.59;10565576;28;20052;-77
2022/11/24 14:22:17;;;;;;;4.03;2.60;;;;;;;-7.52;93.18;101795.69;10570874;28;20036;-76
2022/11/24 14:27:27;;;;;;;2.30;1.63;;;;;;;-7.52;93.43;101801.88;10561450;28;20486;-76
2022/11/24 14:32:29;;;;;;;0.75;0.75;;;;;;;-7.49;93.87;101795.41;10556573;28;20051;-75
2022/11/24 14:37:31;;;;;;;3.40;2.90;;;;;;;-7.48;93.61;101791.78;10554813;28;20051;-74
2022/11/24 14:42:33;;;;;;;5.03;2.22;;;;;;;-7.49;94.17;101796.25;10569378;28;20506;-75
2022/11/24 14:47:36;;;;;;;2.83;2.08;;;;;;;-7.46;94.54;101805.81;10569366;28;20052;-75
2022/11/24 14:52:44;;;;;;;3.05;1.63;;;;;;;-7.51;94.85;101798.22;10537760;28;20526;-75
2022/11/24 14:57:46;;;;;;;3.03;2.23;;;;;;;-7.56;94.32;101812.94;10569598;28;20502;-75
2022/11/24 15:02:50;;;;;;;0.98;0.82;;;;;;;-7.63;95.19;101807.31;10569370;28;20074;-74
2022/11/24 15:08:03;;;;;;;0.32;0.32;;;;;;;-7.62;94.81;101801.00;10563720;28;20540;-76
2022/11/24 15:13:20;;;;;;;1.48;1.13;;;;;;;-7.57;94.89;101809.44;10564253;28;20036;-76
2022/11/24 15:18:26;;;;;;;6.03;2.53;;;;;;;-7.55;95.76;101818.13;10567635;28;20036;-76
2022/11/24 15:23:32;;;;;;;2.58;1.33;;;;;;;-7.54;95.83;101801.16;10567448;28;20052;-74
2022/11/24 15:28:35;;;;;;;1.55;1.30;;;;;;;-7.51;95.75;101800.06;10551439;28;20055;-75
2022/11/24 15:33:38;;;;;;;2.70;2.47;;;;;;;-7.51;95.78;101800.06;10569122;28;20043;-76
2022/11/24 15:38:40;;;;;;;4.03;1.80;;;;;;;-7.46;95.87;101796.03;10574445;28;20593;-74
2022/11/24 15:43:42;;;;;;;4.95;2.42;;;;;;;-7.44;95.86;101806.53;10544702;28;20044;-85
2022/11/24 15:48:45;;;;;;;4.40;2.17;;;;;;;-7.52;96.31;101817.03;10531821;28;20051;-81
2022/11/24 15:53:51;;;;;;;2.08;1.10;;;;;;;-7.51;96.68;101821.38;10562942;28;20040;-80
2022/11/24 15:58:53;;;;;;;4.57;2.05;;;;;;;-7.53;96.48;101823.34;10542187;28;20058;-82
2022/11/24 16:03:56;;;;;;;1.85;1.60;;;;;;;-7.52;96.17;101825.03;10576737;28;20036;-85
2022/11/24 16:08:58;;;;;;;2.47;1.38;;;;;;;-7.49;96.48;101827.41;10576737;28;20391;-79
2022/11/24 16:14:00;;;;;;;1.20;1.00;;;;;;;-7.46;97.10;101822.69;10576582;28;20040;-82
2022/11/24 16:19:02;;;;;;;4.95;2.22;;;;;;;-7.54;96.53;101846.47;10571183;28;20059;-81
2022/11/24 16:24:05;;;;;;;5.60;3.15;;;;;;;-7.53;96.98;101847.31;10572821;28;20040;-79
2022/11/24 16:29:07;;;;;;;3.72;2.40;;;;;;;-7.56;97.35;101859.09;10573381;28;20055;-77
2022/11/24 16:34:09;;;;;;;3.30;2.20;;;;;;;-7.59;97.49;101859.38;10561421;28;20410;-76
2022/11/24 16:39:11;;;;;;;6.88;3.05;;;;;;;-7.56;97.33;101858.25;10558686;28;20040;-76
2022/11/24 16:44:14;;;;;;;2.38;1.92;;;;;;;-7.55;97.18;101875.94;10561577;28;20040;-77
2022/11/24 16:49:16;;;;;;;7.03;3.33;;;;;;;-7.56;97.63;101868.91;10548343;28;20059;-79
2022/11/24 16:54:18;;;;;;;4.47;2.88;;;;;;;-7.53;97.69;101876.63;10547773;28;20040;-82
2022/11/24 16:59:20;;;;;;;6.15;3.03;;;;;;;-7.55;97.64;101868.78;10579834;28;20048;-79
2022/11/24 17:04:22;;;;;;;10.32;3.47;;;;;;;-7.55;97.88;101875.94;10563470;28;20050;-78
2022/11/24 17:09:25;;;;;;;3.35;2.08;;;;;;;-7.58;97.85;101881.53;10578743;28;20028;-79
2022/11/24 17:14:30;;;;;;;3.22;2.63;;;;;;;-7.69;98.33;101888.63;10549664;28;20036;-78
2022/11/24 17:19:33;;;;;;;4.25;2.38;;;;;;;-7.65;97.84;101903.38;10569084;28;20398;-80
2022/11/24 17:24:35;;;;;;;6.50;3.10;;;;;;;-7.63;97.99;101896.13;10572543;28;20050;-81
2022/11/24 17:29:37;;;;;;;1.55;1.38;;;;;;;-7.62;98.33;101899.63;10578120;28;20051;-82
2022/11/24 17:34:40;;;;;;;6.40;2.90;;;;;;;-7.60;98.51;101901.16;10573864;28;20053;-81
2022/11/24 17:39:42;;;;;;;2.83;1.70;;;;;;;-7.60;98.82;101895.84;10560924;28;20048;-80
2022/11/24 17:44:44;;;;;;;8.38;3.42;;;;;;;-7.53;98.64;101900.63;10556980;28;20542;-79
2022/11/24 17:49:46;;;;;;;3.97;2.75;;;;;;;-7.54;98.97;101899.78;10553025;28;20505;-80
2022/11/24 17:54:49;;;;;;;3.63;1.25;;;;;;;-7.54;98.66;101899.78;10562777;28;20052;-82
2022/11/24 17:59:52;;;;;;;1.63;1.25;;;;;;;-7.56;99.37;101898.25;10561184;28;20043;-81
2022/11/24 18:04:54;;;;;;;3.70;2.08;;;;;;;-7.65;99.18;101908.69;10563566;28;20052;-77
2022/11/24 18:09:56;;;;;;;5.82;3.17;;;;;;;-7.74;99.11;101898.84;10555386;28;20060;-80
2022/11/24 18:14:58;;;;;;;5.13;3.20;;;;;;;-7.74;99.49;101904.16;10570262;28;20076;-77
2022/11/24 18:20:01;;;;;;;3.45;1.75;;;;;;;-7.85;99.11;101912.22;10553703;28;20748;-76
2022/11/24 18:25:03;;;;;;;4.32;1.92;;;;;;;-7.85;99.23;101917.56;10563350;28;20047;-77
2022/11/24 18:30:06;;;;;;;3.10;2.47;;;;;;;-7.82;98.87;101922.63;10557526;28;20055;-79
2022/11/24 18:35:09;;;;;;;6.05;2.60;;;;;;;-7.87;99.21;101919.50;10564320;28;20040;-76
2022/11/24 18:40:11;;;;;;;2.00;1.83;;;;;;;-7.92;99.18;101917.25;10566494;28;20040;-78
2022/11/24 18:45:14;;;;;;;2.72;1.27;;;;;;;-7.92;99.69;101917.25;10545645;28;20036;-77
2022/11/24 18:50:16;;;;;;;3.00;1.58;;;;;;;-7.90;99.98;101922.44;10549012;28;20391;-77
2022/11/24 18:55:18;;;;;;;5.10;2.78;;;;;;;-7.84;99.42;101915.72;10546220;28;20040;-79
2022/11/24 19:00:20;;;;;;;5.82;2.40;;;;;;;-7.82;100.00;101933.28;10570320;28;20525;-79
2022/11/24 19:05:23;;;;;;;8.00;4.57;;;;;;;-7.80;99.63;101934.00;10555431;28;20028;-77
2022/11/24 19:10:25;;;;;;;5.15;2.47;;;;;;;-7.77;100.00;101944.41;10560740;28;20516;-78
2022/11/24 19:15:32;;;;;;;2.13;1.50;;;;;;;-7.71;100.00;101946.53;10573050;28;20048;-78
2022/11/24 19:20:39;;;;;;;5.93;2.55;;;;;;;-7.70;100.00;101953.56;10548797;28;20048;-76
2022/11/24 19:25:41;;;;;;;7.35;2.25;;;;;;;-7.65;100.00;101955.81;10576834;28;20032;-75
2022/11/24 19:30:44;;;;;;;2.55;1.42;;;;;;;-7.69;100.00;101957.91;10564651;28;20075;-74
2022/11/24 19:35:47;;;;;;;2.10;1.42;;;;;;;-7.80;100.00;101963.31;10535849;28;20456;-74
2022/11/24 19:40:49;;;;;;;3.70;1.65;;;;;;;-7.88;100.00;101960.44;10569659;28;20051;-75
2022/11/24 19:45:51;;;;;;;3.72;1.73;;;;;;;-7.97;100.00;101970.06;10564022;28;20074;-75
2022/11/24 19:51:01;;;;;;;0.68;0.68;;;;;;;-8.07;100.00;101984.25;10569856;28;20059;-76
2022/11/24 19:56:09;;;;;;;2.28;1.30;;;;;;;-8.13;100.00;101971.47;10557548;28;20406;-77
2022/11/24 20:01:12;;;;;;;2.80;1.67;;;;;;;-8.07;100.00;101961.13;10561066;28;20048;-78
2022/11/24 20:06:15;;;;;;;0.80;0.80;;;;;;;-8.01;100.00;101975.75;10566518;28;20059;-77
2022/11/24 20:11:19;;;;;;;2.35;1.10;;;;;;;-8.04;100.00;101981.34;10560076;28;20524;-76
2022/11/24 20:16:28;;;;;;;1.20;1.10;;;;;;;-8.10;100.00;101989.84;10581960;28;20494;-75
2022/11/24 20:21:31;;;;;;;3.95;1.50;;;;;;;-8.10;100.00;101989.84;10532922;28;20042;-76
2022/11/24 20:26:36;;;;;;;4.00;2.40;;;;;;;-8.08;100.00;101996.72;10567585;28;20048;-74
2022/11/24 20:31:42;;;;;;;3.38;1.88;;;;;;;-8.14;100.00;101986.59;10560900;28;20063;-74
2022/11/24 20:36:46;;;;;;;2.97;1.73;;;;;;;-8.14;100.00;101983.09;10573523;28;20052;-76
2022/11/24 20:41:49;;;;;;;4.60;2.47;;;;;;;-8.17;100.00;101991.31;10571548;28;20040;-78
2022/11/24 20:46:54;;;;;;;2.70;1.98;;;;;;;-8.13;100.00;101990.94;10576605;28;20039;-77
2022/11/24 20:51:56;;;;;;;5.35;3.15;;;;;;;-8.15;100.00;101994.72;10572692;28;20506;-77
2022/11/24 20:56:59;;;;;;;6.40;4.15;;;;;;;-8.18;100.00;102018.91;10552959;28;20617;-77
2022/11/24 21:02:01;;;;;;;5.10;3.00;;;;;;;-8.21;100.00;102001.38;10555815;28;20035;-73
2022/11/24 21:07:03;;;;;;;4.45;2.88;;;;;;;-8.11;100.00;102006.81;10571339;28;20044;-74
2022/11/24 21:12:05;;;;;;;4.15;2.78;;;;;;;-8.22;99.96;102015.66;10571648;28;20051;-73
2022/11/24 21:17:09;;;;;;;5.85;2.08;;;;;;;-8.28;99.90;102003.72;10573100;28;20059;-73
2022/11/24 21:22:11;;;;;;;6.05;4.18;;;;;;;-8.28;100.00;102016.16;10571788;28;20410;-74
2022/11/24 21:27:13;;;;;;;4.93;4.25;;;;;;;-8.35;100.00;102037.13;10548868;28;20036;-75
2022/11/24 21:32:16;;;;;;;8.10;4.70;;;;;;;-8.54;99.29;102032.44;10572155;28;20055;-74
2022/11/24 21:37:18;;;;;;;4.28;2.80;;;;;;;-8.63;99.52;102025.22;10565334;28;20044;-73
2022/11/24 21:42:20;;;;;;;5.32;2.70;;;;;;;-8.68;99.46;102030.03;10569769;28;20494;-74
2022/11/24 21:47:22;;;;;;;6.35;2.55;;;;;;;-8.65;99.31;102028.97;10571272;28;20043;-74
2022/11/24 21:52:24;;;;;;;4.85;3.22;;;;;;;-8.61;99.62;102022.44;10572442;28;20052;-73
2022/11/24 21:57:27;;;;;;;8.77;4.80;;;;;;;-8.57;99.73;102037.19;10567412;28;20083;-74
2022/11/24 22:02:29;;;;;;;6.25;3.08;;;;;;;-8.58;99.58;102033.66;10569708;28;20067;-74
2022/11/24 22:07:31;;;;;;;8.27;4.13;;;;;;;-8.60;100.00;102058.72;10565457;28;20051;-73
2022/11/24 22:12:33;;;;;;;7.57;4.00;;;;;;;-8.64;99.41;102059.94;10571671;28;20425;-73
2022/11/24 22:17:35;;;;;;;4.53;2.58;;;;;;;-8.73;100.00;102065.97;10552568;28;20052;-74
2022/11/24 22:22:38;;;;;;;5.55;2.95;;;;;;;-8.92;99.49;102080.72;10570979;28;20438;-74
2022/11/24 22:27:40;;;;;;;4.15;2.42;;;;;;;-9.07;99.11;102075.72;10571417;28;20032;-74
2022/11/24 22:32:42;;;;;;;7.57;3.15;;;;;;;-9.13;99.35;102098.34;10571805;28;20226;-73
2022/11/24 22:37:44;;;;;;;3.53;2.65;;;;;;;-9.26;99.50;102093.09;10572360;28;20429;-75
2022/11/24 22:42:46;;;;;;;7.32;2.75;;;;;;;-9.27;98.77;102095.88;10571207;28;20036;-76
2022/11/24 22:47:53;;;;;;;4.78;2.97;;;;;;;-9.24;98.75;102098.28;10546637;28;20065;-74
2022/11/24 22:52:55;;;;;;;4.80;2.85;;;;;;;-9.31;99.06;102097.94;10567603;28;20537;-74
2022/11/24 22:57:57;;;;;;;3.67;2.58;;;;;;;-9.37;98.14;102103.72;10568687;28;20040;-74
2022/11/24 23:02:59;;;;;;;5.00;2.28;;;;;;;-9.42;98.10;102088.09;10568125;28;20055;-74
2022/11/24 23:08:01;;;;;;;3.60;2.45;;;;;;;-9.34;98.10;102111.44;10545957;28;20044;-73
2022/11/24 23:13:04;;;;;;;2.42;2.00;;;;;;;-9.32;98.62;102103.34;10565688;28;20036;-75
2022/11/24 23:18:06;;;;;;;4.63;1.88;;;;;;;-9.36;98.98;102108.06;10567731;28;20055;-74
2022/11/24 23:23:08;;;;;;;2.53;1.73;;;;;;;-9.34;97.97;102111.44;10562268;28;20586;-74